Track Масный Дмитрий

Time Latitude Longitude Accuracy (66% radius in meters) Altitude (meters) Speed (km/hour) Bearing (degrees) Battery (%) GPS flag
09:22:38 55.944013 38.068121 2.5 176 0 0 73 1 delete
09:22:26 55.944013 38.068121 2 176 0 0 73 1 delete
09:22:17 55.944013 38.068121 1.5 176 0 0 73 1 delete
09:22:05 55.944013 38.068121 2 176 0 0 73 1 delete
09:21:56 55.944013 38.068121 2 176 0 0 73 1 delete
09:21:44 55.944013 38.068121 2.5 176 0 0 73 1 delete
09:21:35 55.944013 38.068121 2 176 0 0 73 1 delete
09:21:26 55.944019 38.068103 1.5 176.80000305176 0.69999998807907 149.89196777344 73 1 delete
09:21:23 55.944017 38.068031 1.5 179.39999389648 0 0 73 1 delete
09:21:14 55.944017 38.068031 2 179.39999389648 0 0 73 1 delete
09:21:02 55.944017 38.068031 2.5 179.39999389648 0 0 73 1 delete
09:20:56 55.943999 38.067983 3 179.89999389648 0.62999999523163 81.194458007812 73 1 delete
09:20:53 55.943996 38.067952 2.5 180.10000610352 0.17000000178814 150.92468261719 73 1 delete
09:20:44 55.943992 38.067906 2.5 182.10000610352 0 0 73 1 delete
09:20:41 55.943985 38.067884 2.5 182.39999389648 0.62000000476837 76.81640625 73 1 delete
09:20:35 55.943951 38.067776 2 184.10000610352 2.1800000667572 73.289794921875 73 1 delete
09:20:32 55.943929 38.067683 2 184.30000305176 1.8899999856949 63.12744140625 73 1 delete
09:20:26 55.943897 38.067618 2 184.10000610352 0.15999999642372 41.8359375 73 1 delete
09:20:23 55.943893 38.067574 2 184.69999694824 0.93000000715256 65.67626953125 73 1 delete
09:20:17 55.943861 38.067534 1.5 184.80000305176 0.28999999165535 147.76611328125 73 1 delete
09:20:14 55.943822 38.067441 2 185.69999694824 4.0899996757507 51.734619140625 73 1 delete
09:20:11 55.943659 38.067296 2 187.80000305176 2.5099999904633 17.149658203125 73 1 delete
09:20:08 55.943547 38.067187 2.5 188.60000610352 2.5199999809265 42.56103515625 73 1 delete
09:20:05 55.943476 38.066984 2.5 190.60000610352 2.1499998569489 62.017822265625 73 1 delete
09:20:02 55.943429 38.066864 2 190.69999694824 1.4699999094009 72.559204101562 73 1 delete
09:19:59 55.943395 38.066725 2 190.19999694824 0.17000000178814 298.48205566406 73 1 delete
09:19:56 55.943327 38.066629 2 190.80000305176 3.3899998664856 63.896484375 73 1 delete
09:19:53 55.943252 38.066432 2.5 189.30000305176 2.6699998378754 81.771240234375 73 1 delete
09:19:50 55.943174 38.066291 2.5 188.80000305176 2.3999998569489 65.950927734375 73 1 delete
09:19:47 55.943056 38.066258 2 189 2.1299998760223 358.31909179688 73 1 delete
09:19:44 55.942955 38.066270 2 188.69999694824 1.3500000238419 20.401611328125 73 1 delete
09:19:41 55.942873 38.066327 3 187.80000305176 0.94999998807907 309.53979492188 73 1 delete
09:19:38 55.942791 38.066431 2.5 188.89999389648 2.4199998378754 310.19348144531 73 1 delete
09:19:35 55.942681 38.066529 2.5 188.39999389648 2.4099998474121 316.25793457031 73 1 delete
09:19:32 55.942584 38.066626 2 187.89999389648 1.7300000190735 329.1064453125 73 1 delete
09:19:29 55.942504 38.066663 2 186.30000305176 1.4199999570847 356.0888671875 73 1 delete
09:19:26 55.942425 38.066665 2.5 186 1.8700000047684 353.5400390625 73 1 delete
09:19:23 55.942382 38.066563 2.5 186.69999694824 1.9199999570847 50.048217773438 73 1 delete
09:19:20 55.942299 38.066487 2 186.10000610352 1.25 54.68994140625 73 1 delete
09:19:17 55.942251 38.066447 2 185 0.62000000476837 54.656982421875 73 1 delete
09:19:11 55.942199 38.066453 2.5 186.10000610352 0.29999998211861 50.064697265625 73 1 delete
09:19:08 55.942146 38.066479 3 185.69999694824 1.1499999761581 33.55224609375 73 1 delete
09:19:05 55.942077 38.066438 2 185.89999389648 2.3099999427795 6.405029296875 73 1 delete
09:19:02 55.941966 38.066390 2.5 185.60000610352 3.5599999427795 1.9720458984375 73 1 delete
09:18:59 55.941842 38.066371 2.5 186.30000305176 3.1499998569489 11.013793945312 73 1 delete
09:18:56 55.941720 38.066364 2.5 187.39999389648 2.5 19.874267578125 73 1 delete
09:18:53 55.941629 38.066409 2.5 188.19999694824 1.2599999904633 337.65930175781 73 1 delete
09:18:50 55.941557 38.066548 2 187.19999694824 2.9800000190735 310.18249511719 73 1 delete
09:18:47 55.941484 38.066672 2 187.80000305176 3.3199999332428 315.55480957031 73 1 delete
09:18:44 55.941401 38.066724 2 190.30000305176 2.3799998760223 327.73864746094 73 1 delete